createdAt,value
2019-05-20T00:00:27.098Z,68.72
2019-05-20T00:02:55.827Z,68.87
2019-05-20T00:05:24.473Z,68.77
2019-05-20T00:07:53.007Z,68.61
2019-05-20T00:10:21.793Z,68.55
2019-05-20T00:12:50.319Z,68.83
2019-05-20T00:15:18.819Z,68.90
2019-05-20T00:17:47.322Z,68.98
2019-05-20T00:20:15.815Z,68.98
2019-05-20T00:22:44.320Z,68.78
2019-05-20T00:25:12.835Z,68.81
2019-05-20T00:27:41.315Z,68.76
2019-05-20T00:30:09.833Z,68.78
2019-05-20T00:32:41.696Z,68.91
2019-05-20T00:35:08.840Z,69.16
2019-05-20T00:37:37.619Z,69.34
2019-05-20T00:40:06.733Z,69.30
2019-05-20T00:42:35.204Z,69.33
2019-05-20T00:45:03.703Z,69.43
2019-05-20T00:47:32.163Z,69.28
2019-05-20T00:50:00.657Z,69.26
2019-05-20T00:52:29.146Z,69.47
2019-05-20T00:54:57.641Z,69.34
2019-05-20T00:57:26.126Z,69.43
2019-05-20T00:59:54.623Z,69.34
2019-05-20T01:02:23.124Z,69.28
2019-05-20T01:04:51.590Z,69.38
2019-05-20T01:07:20.071Z,69.49
2019-05-20T01:09:48.556Z,69.48
2019-05-20T01:12:17.060Z,69.64
2019-05-20T01:14:45.544Z,69.68
2019-05-20T01:17:14.026Z,69.72
2019-05-20T01:19:42.507Z,69.89
2019-05-20T01:22:10.996Z,69.78
2019-05-20T01:24:39.814Z,69.92
2019-05-20T01:27:08.324Z,69.80
2019-05-20T01:29:36.823Z,69.81
2019-05-20T01:32:05.647Z,69.86
2019-05-20T01:34:34.157Z,70.04
2019-05-20T01:37:02.617Z,70.05
2019-05-20T01:39:31.357Z,70.05
2019-05-20T01:41:59.841Z,69.92
2019-05-20T01:44:28.348Z,69.91
2019-05-20T01:46:56.830Z,69.93
2019-05-20T01:49:25.629Z,69.95
2019-05-20T01:51:54.158Z,69.84
2019-05-20T01:54:22.669Z,69.87
2019-05-20T01:56:51.163Z,70.26
2019-05-20T01:59:19.950Z,70.22
2019-05-20T02:01:48.440Z,70.49
2019-05-20T02:04:17.192Z,70.70
2019-05-20T02:06:45.689Z,70.66
2019-05-20T02:09:14.198Z,70.50
2019-05-20T02:11:42.733Z,70.27
2019-05-20T02:14:15.619Z,70.32
2019-05-20T02:16:44.097Z,70.37
2019-05-20T02:19:12.612Z,70.26
2019-05-20T02:21:41.531Z,70.12
2019-05-20T02:24:10.017Z,70.02
2019-05-20T02:26:38.514Z,69.91
2019-05-20T02:29:07.358Z,70.05
2019-05-20T02:31:35.841Z,70.22
2019-05-20T02:34:04.382Z,70.41
2019-05-20T02:36:32.869Z,70.59
2019-05-20T02:39:01.687Z,70.65
2019-05-20T02:41:30.147Z,70.66
2019-05-20T02:43:58.626Z,70.79
2019-05-20T02:46:27.135Z,70.79
2019-05-20T02:48:55.627Z,70.78
2019-05-20T02:51:33.572Z,70.78
2019-05-20T02:54:02.513Z,70.96
2019-05-20T02:56:31.425Z,70.95
2019-05-20T02:59:00.275Z,71.06
2019-05-20T03:01:28.764Z,71.04
2019-05-20T03:04:10.623Z,70.79
2019-05-20T03:06:27.685Z,70.91
2019-05-20T03:08:56.163Z,71.15
2019-05-20T03:11:24.654Z,71.15
2019-05-20T03:13:53.157Z,71.25
2019-05-20T03:16:21.637Z,71.29
2019-05-20T03:18:50.119Z,71.61
2019-05-20T03:21:18.613Z,71.58
2019-05-20T03:23:47.437Z,71.40
2019-05-20T03:26:15.939Z,71.50
2019-05-20T03:28:44.467Z,71.50
2019-05-20T03:31:12.951Z,71.55
2019-05-20T03:33:41.446Z,71.55
2019-05-20T03:36:09.940Z,71.57
2019-05-20T03:38:38.439Z,71.45
2019-05-20T03:41:07.211Z,71.47
2019-05-20T03:43:35.690Z,71.52
2019-05-20T03:46:04.184Z,71.60
2019-05-20T03:48:32.638Z,71.68
2019-05-20T03:51:01.333Z,71.79
2019-05-20T03:53:30.161Z,71.59
2019-05-20T03:55:58.672Z,71.66
2019-05-20T03:58:27.423Z,71.76
2019-05-20T04:00:56.042Z,71.84
2019-05-20T04:03:24.554Z,71.95
2019-05-20T04:05:53.087Z,71.89
2019-05-20T04:08:21.585Z,71.89
2019-05-20T04:10:50.073Z,71.87
2019-05-20T04:13:18.549Z,71.90
2019-05-20T04:15:47.020Z,71.96
2019-05-20T04:18:15.518Z,71.94
2019-05-20T04:20:44.278Z,71.83
2019-05-20T04:23:13.073Z,71.88
2019-05-20T04:25:41.520Z,71.91
2019-05-20T04:28:10.030Z,71.91
2019-05-20T04:30:38.529Z,71.96
2019-05-20T04:33:07.008Z,72.03
2019-05-20T04:35:35.504Z,71.95
2019-05-20T04:38:03.991Z,72.08
2019-05-20T04:40:32.496Z,72.25
2019-05-20T04:43:00.946Z,72.34
2019-05-20T04:45:29.430Z,72.17
2019-05-20T04:47:57.898Z,72.50
2019-05-20T04:50:26.637Z,72.69
2019-05-20T04:52:55.138Z,72.84
2019-05-20T04:55:23.639Z,72.97
2019-05-20T04:57:52.131Z,72.92
2019-05-20T05:00:45.033Z,72.64
2019-05-20T05:03:13.523Z,72.65
2019-05-20T05:05:42.028Z,72.72
2019-05-20T05:08:10.507Z,72.54
2019-05-20T05:10:39.004Z,72.69
2019-05-20T05:13:07.482Z,72.62
2019-05-20T05:15:35.953Z,72.70
2019-05-20T05:18:04.432Z,72.81
2019-05-20T05:20:32.911Z,73.09
2019-05-20T05:23:01.405Z,73.44
2019-05-20T05:25:29.886Z,73.49
2019-05-20T05:27:58.375Z,73.36
2019-05-20T05:30:26.842Z,73.20
2019-05-20T05:32:55.294Z,73.36
2019-05-20T05:35:23.800Z,73.33
2019-05-20T05:37:52.346Z,73.16
2019-05-20T05:40:25.192Z,72.96
2019-05-20T05:42:53.715Z,72.77
2019-05-20T05:45:29.455Z,72.69
2019-05-20T05:47:58.356Z,72.70
2019-05-20T05:50:26.871Z,72.82
2019-05-20T05:52:55.348Z,72.89
2019-05-20T05:55:23.847Z,72.91
2019-05-20T05:57:52.360Z,72.94
2019-05-20T06:00:20.855Z,72.97
2019-05-20T06:02:49.565Z,72.77
2019-05-20T06:05:18.068Z,72.69
2019-05-20T06:07:46.549Z,72.72
2019-05-20T06:10:15.024Z,73.14
2019-05-20T06:12:43.482Z,73.31
2019-05-20T06:15:12.185Z,73.33
2019-05-20T06:17:40.671Z,73.31
2019-05-20T06:20:09.150Z,73.24
2019-05-20T06:22:37.891Z,73.19
2019-05-20T06:25:06.418Z,73.03
2019-05-20T06:27:35.180Z,72.78
2019-05-20T06:30:03.706Z,72.56
2019-05-20T06:32:32.237Z,72.55
2019-05-20T06:35:00.727Z,72.42
2019-05-20T06:37:31.116Z,72.54
2019-05-20T06:39:59.938Z,72.57
2019-05-20T06:42:28.419Z,72.57
2019-05-20T06:44:57.513Z,72.48
2019-05-20T06:47:26.043Z,72.49
2019-05-20T06:49:54.486Z,72.64
2019-05-20T06:52:35.490Z,72.78
2019-05-20T06:54:53.191Z,72.91
2019-05-20T06:57:23.939Z,72.94
2019-05-20T06:59:52.297Z,72.94
2019-05-20T07:02:20.784Z,72.92
2019-05-20T07:04:49.261Z,73.08
2019-05-20T07:07:21.307Z,72.94
2019-05-20T07:09:48.004Z,72.86
2019-05-20T07:12:16.451Z,72.94
2019-05-20T07:14:44.911Z,72.97
2019-05-20T07:17:13.404Z,72.93
2019-05-20T07:19:42.146Z,72.87
2019-05-20T07:22:10.646Z,72.85
2019-05-20T07:24:39.133Z,72.95
2019-05-20T07:27:07.603Z,72.97
2019-05-20T07:29:36.115Z,72.91
2019-05-20T07:32:04.569Z,72.83
2019-05-20T07:34:33.065Z,72.92
2019-05-20T07:37:03.998Z,72.99
2019-05-20T07:39:32.433Z,72.97
2019-05-20T07:42:00.931Z,73.08
2019-05-20T07:44:29.424Z,72.99
2019-05-20T07:46:58.143Z,72.93
2019-05-20T07:49:26.603Z,72.90
2019-05-20T07:51:55.119Z,72.92
2019-05-20T07:54:23.631Z,72.85
2019-05-20T07:56:52.273Z,72.84
2019-05-20T07:59:22.062Z,72.90
2019-05-20T08:01:50.647Z,72.78
2019-05-20T08:04:19.130Z,72.73
2019-05-20T08:06:47.614Z,72.85
2019-05-20T08:09:16.116Z,72.95
2019-05-20T08:11:44.613Z,72.94
2019-05-20T08:14:13.190Z,72.95
2019-05-20T08:16:41.698Z,73.01
2019-05-20T08:19:10.176Z,73.04
2019-05-20T08:21:38.797Z,73.07
2019-05-20T08:24:07.296Z,72.92
2019-05-20T08:26:35.888Z,72.83
2019-05-20T08:29:04.394Z,72.84
2019-05-20T08:31:32.893Z,72.83
2019-05-20T08:34:01.362Z,72.82
2019-05-20T08:36:29.864Z,72.85
2019-05-20T08:38:58.349Z,72.74
2019-05-20T08:41:27.446Z,72.71
2019-05-20T08:43:56.037Z,72.76
2019-05-20T08:46:24.627Z,72.77
2019-05-20T08:48:53.080Z,72.75
2019-05-20T08:51:21.597Z,72.68
2019-05-20T08:53:50.309Z,72.57
2019-05-20T08:56:18.839Z,72.51
2019-05-20T08:58:47.316Z,72.42
2019-05-20T09:01:15.838Z,72.51
2019-05-20T09:03:44.499Z,72.41
2019-05-20T09:06:13.013Z,72.31
2019-05-20T09:08:41.562Z,72.19
2019-05-20T09:11:09.981Z,72.25
2019-05-20T09:13:38.716Z,72.17
2019-05-20T09:16:07.203Z,72.13
2019-05-20T09:18:35.913Z,72.11
2019-05-20T09:21:04.402Z,72.11
2019-05-20T09:23:32.921Z,72.09
2019-05-20T09:26:01.383Z,72.01
2019-05-20T09:28:30.119Z,72.01
2019-05-20T09:30:58.623Z,72.11
2019-05-20T09:33:27.092Z,72.09
2019-05-20T09:35:56.327Z,72.08
2019-05-20T09:38:24.834Z,72.03
2019-05-20T09:40:53.366Z,72.04
2019-05-20T09:43:21.883Z,71.98
2019-05-20T09:46:05.556Z,71.82
2019-05-20T09:48:24.697Z,71.83
2019-05-20T09:50:50.809Z,71.91
2019-05-20T09:53:19.298Z,72.04
2019-05-20T09:55:47.764Z,72.01
2019-05-20T09:58:16.261Z,71.89
2019-05-20T10:00:44.819Z,71.79
2019-05-20T10:03:13.308Z,71.75
2019-05-20T10:05:41.776Z,71.77
2019-05-20T10:08:10.336Z,71.68
2019-05-20T10:10:39.066Z,71.68
2019-05-20T10:13:08.359Z,71.71
2019-05-20T10:15:37.155Z,71.59
2019-05-20T10:18:05.924Z,71.56
2019-05-20T10:20:34.745Z,71.57
2019-05-20T10:23:03.221Z,71.58
2019-05-20T10:25:31.732Z,71.57
2019-05-20T10:28:00.224Z,71.62
2019-05-20T10:30:28.767Z,71.63
2019-05-20T10:32:57.240Z,71.72
2019-05-20T10:35:26.247Z,71.66
2019-05-20T10:37:54.747Z,71.44
2019-05-20T10:40:23.502Z,71.46
2019-05-20T10:42:52.001Z,71.46
2019-05-20T10:45:20.502Z,71.40
2019-05-20T10:47:48.953Z,71.44
2019-05-20T10:50:17.728Z,71.43
2019-05-20T10:52:46.265Z,71.33
2019-05-20T10:55:16.362Z,71.27
2019-05-20T10:57:44.829Z,71.22
2019-05-20T11:00:13.327Z,71.36
2019-05-20T11:02:41.794Z,71.41
2019-05-20T11:05:10.373Z,71.34
2019-05-20T11:07:39.259Z,71.47
2019-05-20T11:10:07.827Z,71.51
2019-05-20T11:12:36.307Z,71.51
2019-05-20T11:15:05.175Z,71.40
2019-05-20T11:17:33.665Z,71.32
2019-05-20T11:20:02.165Z,71.31
2019-05-20T11:22:30.657Z,71.17
2019-05-20T11:24:59.144Z,71.06
2019-05-20T11:27:27.651Z,70.89
2019-05-20T11:29:56.154Z,70.76
2019-05-20T11:32:24.605Z,70.67
2019-05-20T11:34:53.164Z,70.50
2019-05-20T11:37:21.694Z,70.47
2019-05-20T11:39:50.135Z,70.44
2019-05-20T11:42:18.634Z,70.44
2019-05-20T11:44:47.221Z,70.40
2019-05-20T11:47:15.979Z,70.39
2019-05-20T11:49:44.487Z,70.21
2019-05-20T11:52:13.096Z,70.21
2019-05-20T11:54:41.599Z,70.15
2019-05-20T11:57:10.074Z,69.97
2019-05-20T11:59:38.595Z,69.82
2019-05-20T12:02:07.069Z,69.58
2019-05-20T12:04:35.559Z,69.55
2019-05-20T12:07:04.140Z,69.64
2019-05-20T12:09:48.098Z,69.58
2019-05-20T12:12:02.966Z,69.72
2019-05-20T12:14:31.538Z,69.58
2019-05-20T12:17:00.098Z,69.54
2019-05-20T12:19:28.562Z,69.43
2019-05-20T12:21:57.369Z,69.22
2019-05-20T12:24:26.148Z,68.91
2019-05-20T12:26:55.050Z,69.01
2019-05-20T12:29:23.527Z,68.95
2019-05-20T12:31:52.015Z,68.98
2019-05-20T12:34:20.565Z,68.86
2019-05-20T12:36:49.064Z,68.96
2019-05-20T12:39:17.570Z,68.71
2019-05-20T12:41:46.066Z,68.50
2019-05-20T12:44:14.610Z,68.31
2019-05-20T12:46:43.086Z,68.15
2019-05-20T12:49:11.728Z,68.28
2019-05-20T12:51:40.247Z,68.43
2019-05-20T12:54:09.040Z,68.23
2019-05-20T12:56:37.526Z,67.80
2019-05-20T12:59:06.013Z,67.24
2019-05-20T13:01:34.795Z,66.98
2019-05-20T13:04:03.619Z,66.67
2019-05-20T13:06:32.254Z,66.21
2019-05-20T13:09:00.719Z,66.29
2019-05-20T13:11:29.517Z,66.34
2019-05-20T13:13:58.024Z,66.14
2019-05-20T13:16:26.509Z,66.29
2019-05-20T13:18:56.433Z,66.01
2019-05-20T13:21:25.171Z,65.82
2019-05-20T13:23:53.666Z,65.87
2019-05-20T13:26:22.181Z,65.48
2019-05-20T13:28:51.155Z,65.62
2019-05-20T13:31:19.635Z,65.45
2019-05-20T13:33:48.122Z,65.03
2019-05-20T13:36:16.631Z,64.75
2019-05-20T13:38:45.171Z,64.56
2019-05-20T13:41:14.050Z,64.30
2019-05-20T13:43:42.563Z,63.94
2019-05-20T13:46:11.073Z,64.11
2019-05-20T13:48:39.680Z,63.78
2019-05-20T13:51:08.160Z,63.55
2019-05-20T13:53:36.881Z,63.59
2019-05-20T13:56:05.339Z,63.50
2019-05-20T13:58:34.174Z,63.21
2019-05-20T14:01:02.942Z,62.92
2019-05-20T14:03:31.898Z,62.96
2019-05-20T14:06:00.396Z,62.70
2019-05-20T14:08:28.876Z,62.47
2019-05-20T14:11:04.158Z,62.10
2019-05-20T14:13:27.612Z,61.90
2019-05-20T14:15:56.086Z,61.79
2019-05-20T14:18:24.567Z,61.71
2019-05-20T14:20:53.053Z,61.35
2019-05-20T14:23:21.619Z,61.16
2019-05-20T14:25:50.089Z,61.54
2019-05-20T14:28:20.015Z,61.74
2019-05-20T14:30:48.474Z,61.61
2019-05-20T14:33:16.963Z,61.91
2019-05-20T14:35:45.692Z,61.97
2019-05-20T14:38:14.187Z,61.86
2019-05-20T14:40:43.095Z,61.35
2019-05-20T14:43:11.558Z,60.92
2019-05-20T14:45:40.078Z,60.99
2019-05-20T14:48:08.580Z,61.68
2019-05-20T14:50:37.065Z,61.82
2019-05-20T14:53:05.544Z,62.09
2019-05-20T14:55:42.202Z,61.79
2019-05-20T14:58:04.282Z,62.01
2019-05-20T15:00:32.772Z,61.94
2019-05-20T15:03:01.552Z,61.51
2019-05-20T15:05:30.008Z,61.92
2019-05-20T15:07:58.810Z,61.52
2019-05-20T15:10:27.595Z,61.25
2019-05-20T15:12:56.074Z,60.80
2019-05-20T15:15:24.535Z,60.71
2019-05-20T15:17:53.049Z,60.32
2019-05-20T15:20:21.559Z,60.21
2019-05-20T15:22:50.110Z,60.17
2019-05-20T15:25:18.636Z,59.94
2019-05-20T15:27:49.835Z,59.98
2019-05-20T15:30:17.352Z,59.75
2019-05-20T15:32:45.842Z,59.50
2019-05-20T15:35:14.363Z,59.28
2019-05-20T15:37:42.860Z,58.86
2019-05-20T15:40:11.335Z,58.41
2019-05-20T15:42:40.181Z,58.02
2019-05-20T15:45:08.975Z,58.20
2019-05-20T15:47:37.554Z,58.34
2019-05-20T15:50:08.743Z,58.68
2019-05-20T15:52:37.064Z,58.87
2019-05-20T15:55:06.184Z,59.14
2019-05-20T15:57:34.790Z,59.33
2019-05-20T16:00:03.412Z,59.46
2019-05-20T16:02:31.864Z,59.46
2019-05-20T16:05:00.374Z,59.36
2019-05-20T16:07:28.885Z,59.32
2019-05-20T16:09:58.096Z,59.25
2019-05-20T16:12:26.853Z,59.41
2019-05-20T16:14:55.702Z,59.51
2019-05-20T16:17:24.226Z,59.48
2019-05-20T16:19:52.686Z,59.50
2019-05-20T16:22:21.197Z,59.43
2019-05-20T16:24:49.742Z,59.52
2019-05-20T16:27:18.244Z,59.50
2019-05-20T16:30:04.788Z,59.45
2019-05-20T16:32:17.288Z,59.42
2019-05-20T16:34:45.736Z,59.42
2019-05-20T16:37:14.253Z,59.60
2019-05-20T16:39:42.728Z,59.67
2019-05-20T16:42:11.236Z,59.73
2019-05-20T16:44:39.817Z,59.80
2019-05-20T16:47:08.329Z,59.92
2019-05-20T16:49:36.804Z,59.81
2019-05-20T16:52:05.923Z,59.71
2019-05-20T16:54:34.522Z,59.65
2019-05-20T16:57:03.022Z,59.67
2019-05-20T16:59:31.481Z,59.59
2019-05-20T17:01:59.963Z,59.49
2019-05-20T17:04:28.458Z,59.48
2019-05-20T17:06:56.931Z,59.59
2019-05-20T17:09:25.812Z,59.56
2019-05-20T17:11:54.331Z,59.69
2019-05-20T17:14:22.783Z,59.90
2019-05-20T17:16:51.300Z,60.10
2019-05-20T17:19:19.879Z,60.26
2019-05-20T17:21:48.351Z,60.29
2019-05-20T17:24:16.854Z,60.29
2019-05-20T17:26:45.587Z,60.23
2019-05-20T17:29:14.372Z,60.18
2019-05-20T17:31:42.930Z,60.30
2019-05-20T17:34:11.453Z,60.23
2019-05-20T17:36:39.930Z,60.26
2019-05-20T17:39:08.371Z,60.26
2019-05-20T17:41:36.917Z,60.41
2019-05-20T17:44:05.374Z,60.46
2019-05-20T17:46:33.874Z,60.44
2019-05-20T17:49:02.378Z,60.52
2019-05-20T17:51:30.896Z,60.64
2019-05-20T17:53:59.355Z,60.66
2019-05-20T17:56:27.855Z,60.65
2019-05-20T17:58:56.356Z,60.75
2019-05-20T18:01:24.842Z,60.80
2019-05-20T18:03:53.297Z,60.90
2019-05-20T18:06:22.157Z,60.96
2019-05-20T18:08:53.262Z,61.02
2019-05-20T18:11:21.736Z,61.15
2019-05-20T18:13:50.447Z,61.26
2019-05-20T18:16:19.177Z,61.26
2019-05-20T18:18:47.703Z,61.32
2019-05-20T18:21:16.177Z,61.42
2019-05-20T18:23:44.756Z,61.48
2019-05-20T18:26:13.223Z,61.58
2019-05-20T18:28:41.698Z,61.66
2019-05-20T18:31:10.482Z,61.80
2019-05-20T18:33:39.406Z,61.85
2019-05-20T18:36:07.887Z,61.87
2019-05-20T18:38:36.355Z,62.04
2019-05-20T18:41:04.855Z,62.14
2019-05-20T18:43:33.359Z,62.13
2019-05-20T18:46:01.861Z,62.09
2019-05-20T18:48:30.404Z,62.10
2019-05-20T18:50:58.888Z,62.17
2019-05-20T18:53:27.646Z,62.33
2019-05-20T18:55:56.123Z,62.33
2019-05-20T18:58:24.603Z,62.48
2019-05-20T19:00:53.086Z,62.60
2019-05-20T19:03:21.903Z,62.67
2019-05-20T19:05:50.562Z,62.66
2019-05-20T19:08:19.043Z,62.58
2019-05-20T19:10:47.530Z,62.76
2019-05-20T19:13:16.232Z,62.90
2019-05-20T19:15:44.700Z,62.94
2019-05-20T19:18:13.201Z,63.00
2019-05-20T19:20:41.673Z,63.03
2019-05-20T19:23:10.379Z,63.05
2019-05-20T19:25:38.852Z,63.09
2019-05-20T19:28:07.350Z,63.18
2019-05-20T19:30:35.869Z,63.29
2019-05-20T19:33:04.261Z,63.42
2019-05-20T19:35:33.025Z,63.58
2019-05-20T19:38:01.564Z,63.69
2019-05-20T19:40:30.087Z,63.78
2019-05-20T19:42:58.696Z,63.89
2019-05-20T19:45:27.099Z,64.03
2019-05-20T19:47:55.574Z,64.03
2019-05-20T19:50:24.091Z,64.01
2019-05-20T19:52:52.641Z,64.10
2019-05-20T19:55:21.099Z,64.20
2019-05-20T19:57:49.578Z,64.29
2019-05-20T20:00:18.127Z,64.32
2019-05-20T20:02:46.668Z,64.37
2019-05-20T20:05:15.187Z,64.48
2019-05-20T20:07:43.711Z,64.58
2019-05-20T20:10:12.688Z,64.60
2019-05-20T20:12:41.213Z,64.58
2019-05-20T20:15:15.512Z,64.56
2019-05-20T20:17:44.047Z,64.54
2019-05-20T20:20:12.532Z,64.47
2019-05-20T20:22:41.015Z,64.46
2019-05-20T20:25:09.508Z,64.39
2019-05-20T20:27:38.003Z,64.51
2019-05-20T20:30:06.820Z,64.50
2019-05-20T20:32:38.464Z,64.45
2019-05-20T20:35:06.141Z,64.42
2019-05-20T20:37:34.562Z,64.37
2019-05-20T20:40:03.110Z,64.45
2019-05-20T20:42:31.565Z,64.50
2019-05-20T20:45:00.070Z,64.62
2019-05-20T20:47:40.829Z,64.59
2019-05-20T20:49:58.799Z,64.59
2019-05-20T20:52:27.301Z,64.51
2019-05-20T20:54:56.011Z,64.48
2019-05-20T20:57:24.779Z,64.56
2019-05-20T20:59:53.273Z,64.62
2019-05-20T21:02:21.733Z,64.71
2019-05-20T21:04:50.231Z,64.70
2019-05-20T21:07:18.809Z,64.69
2019-05-20T21:09:47.275Z,64.67
2019-05-20T21:12:15.788Z,64.71
2019-05-20T21:14:44.284Z,64.69
2019-05-20T21:17:12.779Z,64.69
2019-05-20T21:19:41.227Z,64.74
2019-05-20T21:22:09.701Z,64.80
2019-05-20T21:24:38.170Z,64.83
2019-05-20T21:27:06.976Z,64.85
2019-05-20T21:29:35.773Z,64.84
2019-05-20T21:32:04.255Z,64.79
2019-05-20T21:34:32.784Z,64.93
2019-05-20T21:37:01.510Z,65.15
2019-05-20T21:39:29.938Z,65.14
2019-05-20T21:41:58.757Z,65.12
2019-05-20T21:44:27.257Z,65.24
2019-05-20T21:46:55.722Z,65.22
2019-05-20T21:49:24.535Z,65.28
2019-05-20T21:51:53.011Z,65.30
2019-05-20T21:54:21.482Z,65.36
2019-05-20T21:56:50.244Z,65.42
2019-05-20T21:59:18.752Z,65.50
2019-05-20T22:01:47.579Z,65.60
2019-05-20T22:04:16.059Z,65.64
2019-05-20T22:06:44.527Z,65.67
2019-05-20T22:09:13.008Z,65.70
2019-05-20T22:11:41.810Z,65.72
2019-05-20T22:14:10.267Z,65.76
2019-05-20T22:16:38.804Z,65.79
2019-05-20T22:19:07.285Z,65.75
2019-05-20T22:21:41.928Z,65.77
2019-05-20T22:24:10.463Z,65.88
2019-05-20T22:26:39.229Z,65.79
2019-05-20T22:29:07.722Z,65.73
2019-05-20T22:31:54.289Z,65.67
2019-05-20T22:34:22.782Z,65.64
2019-05-20T22:36:51.293Z,65.67
2019-05-20T22:39:19.805Z,65.66
2019-05-20T22:41:48.542Z,65.76
2019-05-20T22:44:17.011Z,65.77
2019-05-20T22:46:45.515Z,65.68
2019-05-20T22:49:14.304Z,65.64
2019-05-20T22:51:42.819Z,65.51
2019-05-20T22:54:11.467Z,65.54
2019-05-20T22:56:39.931Z,65.50
2019-05-20T22:59:08.407Z,65.55
2019-05-20T23:01:36.886Z,65.69
2019-05-20T23:04:05.378Z,65.72
2019-05-20T23:06:33.877Z,65.87
2019-05-20T23:09:03.475Z,66.01
2019-05-20T23:11:31.971Z,66.08
2019-05-20T23:14:00.475Z,66.27
2019-05-20T23:16:29.207Z,66.53
2019-05-20T23:18:57.728Z,66.62
2019-05-20T23:21:26.171Z,66.99
2019-05-20T23:23:54.672Z,67.18
2019-05-20T23:26:23.171Z,67.16
2019-05-20T23:28:51.728Z,67.25
2019-05-20T23:31:20.223Z,67.25
2019-05-20T23:33:48.937Z,67.09
2019-05-20T23:36:17.430Z,67.14
2019-05-20T23:38:46.270Z,67.18
2019-05-20T23:41:15.077Z,67.08
2019-05-20T23:43:43.550Z,67.04
2019-05-20T23:46:12.037Z,67.05
2019-05-20T23:48:40.528Z,67.05
2019-05-20T23:51:09.043Z,67.05
2019-05-20T23:53:37.560Z,67.17
2019-05-20T23:56:06.037Z,67.17
2019-05-20T23:58:34.854Z,67.12
